Huvudsida
METAR-TAF:

METAR-TAF

Flygplatser :

Wadi ad-Dawasir, Saudiarabien

latitud: 20-30N, longitud: 045-12E, höjd: 624 m

Aktuellt väderrapport

Denna rapport gjordes för 36 minuter sedan, klockan 19:00 UTC
Vind 6 kt från ost
Temperatur 23°C
Fuktighet 57%
Tryck 1015 hPa
Sikt 10 km eller mer
Inga moln under 1 500 m eller inga cumulonimbus

METAR: OEWD 111900Z 08006KT CAVOK 23/14 Q1015

Tid: 22:36 (19:36 UTC)

Väderprognos

Denna rapport gjordes för 8 timmar och 36 minuter sedan, klockan 11:00 UTC
Prognos gäller från 11 kl. 12 UTC till 12 kl. 18 UTC
Vind 12 kt från ost
Sikt 10 km eller mer
Inga moln under 1 500 m eller inga cumulonimbus
Blir
från 11 kl. 18 UTC till 11 kl. 20 UTC
Vind 3 kt varierande vindriktning

TAF: OEWD 111100Z 1112/1218 10012KT CAVOK BECMG 1118/1120 VRB03KT

Aktuella väderrapporter och prognoser från 4000 flygplatser (METAR- och TAF-rapporter).

De tillgängliga stationerna syns som gula och röda prickar på kartan.

För musen över prickarna för att se namnen på stationerna.

Klicka sedan för att få väderrapporter och prognoser.

För att ändra kartan: Klicka på de gröna knapparna med ett svart kors på för att zooma in; den gröna knappen med ett streck på för att zooma ut; eller på de gröna pilarna för angränsande kartor.


METAR-TAF: